PABT/BTT METAR and TAF weather

Enter ICAO airport designator
Station Type Date Time Source
PABT METAR 2020/01/22 20:53 UTC NOAA

PABT 222053Z 00000KT 10SM FEW024 SCT048 BKN095 M24/M28 A2971 RMK AO2 SNB40E49 SLP089 SHSN VC N AND VC S-NW 60000 931000 T12441278 53017


Station Type Date Time Source
PABT Decoded METAR 2020/01/22 20:53 UTC NOAA

BETTLES AIRPORT, AK, United States (PABT) 66-54N 151-31W 196M
Jan 22, 2020 - 03:53 PM EST / 2020.01.22 2053 UTC
Wind: Calm:0
Visibility: 10 mile(s):0
Sky conditions: mostly cloudy
Temperature: -11.9 F (-24.4 C)
Dew Point: -18.0 F (-27.8 C)
Relative Humidity: 73%
Pressure (altimeter): 29.71 in. Hg (1006 hPa)
Pressure tendency: 0.05 inches (1.7 hPa) higher than three hours ago
ob: PABT 222053Z 00000KT 10SM FEW024 SCT048 BKN095 M24/M28 A2971 RMK AO2 SNB40E49 SLP089 SHSN VC N AND VC S-NW 60000 931000 T12441278 53017
cycle: 21

Station Type Date Time Source
PABT TAF 2020/01/22 21:48 UTC NOAA

TAF
AMD PABT 222045Z 2221/2318 VRB03KT P6SM -SN SCT025 BKN045
FM230300 VRB03KT P6SM VCSH OVC025
FM231000 VRB03KT P6SM OVC050

Example: see airport list